Time;durP1;ratioP1;P1;durP2;ratioP2;P2;SDS_P1;SDS_P2;PMS_P1;PMS_P2;Temp;Humidity;BMP_temperature;BMP_pressure;BME280_temperature;BME280_humidity;BME280_pressure;Samples;Min_cycle;Max_cycle;Signal;HPM_P1;HPM_P2
2021/01/27 00:01:32;;;;;;;18.50;12.20;;;;;;;3.08;71.80;101391.38;6124602;28;20471;-63
2021/01/27 00:04:52;;;;;;;13.77;11.13;;;;;;;2.91;72.97;101391.75;6131546;28;20240;-63
2021/01/27 00:08:14;;;;;;;12.33;11.03;;;;;;;2.86;74.02;101385.56;6108712;29;20595;-64
2021/01/27 00:11:35;;;;;;;14.43;12.93;;;;;;;2.86;73.90;101379.56;6115876;29;20241;-63
2021/01/27 00:14:55;;;;;;;15.97;14.07;;;;;;;2.97;73.97;101375.63;6121966;29;20259;-62
2021/01/27 00:18:18;;;;;;;15.33;13.37;;;;;;;3.00;73.26;101369.69;6120587;28;20232;-63
2021/01/27 00:21:39;;;;;;;14.87;12.90;;;;;;;3.31;72.26;101369.78;6118709;29;20235;-61
2021/01/27 00:25:00;;;;;;;14.27;12.37;;;;;;;3.00;72.99;101362.84;6130141;28;20681;-62
2021/01/27 00:28:20;;;;;;;16.53;13.97;;;;;;;2.99;74.42;101360.25;6132626;28;20517;-62
2021/01/27 00:31:40;;;;;;;19.57;13.57;;;;;;;2.98;73.22;101359.34;6121493;28;20323;-63
2021/01/27 00:35:01;;;;;;;15.57;13.97;;;;;;;3.08;72.80;101356.25;6124268;29;20232;-64
2021/01/27 00:38:25;;;;;;;16.43;13.97;;;;;;;2.96;73.69;101351.56;6120902;29;20235;-63
2021/01/27 00:41:46;;;;;;;16.37;14.50;;;;;;;3.10;73.19;101351.13;6113300;29;20224;-62
2021/01/27 00:45:08;;;;;;;18.43;14.93;;;;;;;3.07;73.10;101354.47;6110944;29;20318;-62
2021/01/27 00:48:28;;;;;;;20.17;14.30;;;;;;;2.94;74.23;101352.34;6126001;28;20235;-64
2021/01/27 00:51:48;;;;;;;18.27;13.70;;;;;;;3.19;73.47;101340.25;6113257;29;20266;-64
2021/01/27 00:55:12;;;;;;;15.83;14.10;;;;;;;3.32;72.50;101343.22;6129231;28;20497;-63
2021/01/27 00:58:33;;;;;;;16.63;14.67;;;;;;;3.26;73.61;101332.75;6124747;28;20303;-63
2021/01/27 01:01:56;;;;;;;19.07;15.20;;;;;;;3.10;73.32;101325.38;6117585;29;20228;-63
2021/01/27 01:05:34;;;;;;;15.50;13.50;;;;;;;3.22;72.50;101333.47;6101203;29;20677;-62
2021/01/27 01:08:55;;;;;;;15.83;13.87;;;;;;;2.91;74.05;101327.41;6119557;29;20240;-63
2021/01/27 01:12:15;;;;;;;19.30;13.37;;;;;;;3.22;73.11;101328.34;6117364;29;20227;-63
2021/01/27 01:15:36;;;;;;;19.50;14.10;;;;;;;3.01;73.92;101333.72;6120708;29;20232;-63
2021/01/27 01:18:56;;;;;;;16.13;13.60;;;;;;;3.01;74.26;101348.28;6127938;28;20235;-63
2021/01/27 01:22:17;;;;;;;16.17;13.67;;;;;;;2.81;75.20;101335.69;6117122;29;20243;-62
2021/01/27 01:25:37;;;;;;;18.13;14.37;;;;;;;2.85;74.42;101342.69;6122509;29;20298;-64
2021/01/27 01:28:58;;;;;;;16.97;14.23;;;;;;;2.85;74.00;101345.25;6129270;28;20645;-64
2021/01/27 01:32:19;;;;;;;18.40;15.27;;;;;;;3.08;74.39;101345.06;6120966;29;20247;-63
2021/01/27 01:35:41;;;;;;;15.90;13.77;;;;;;;3.18;73.46;101344.53;6115062;28;20221;-61
2021/01/27 01:39:01;;;;;;;18.83;14.73;;;;;;;3.31;72.32;101341.44;6110390;29;20235;-62
2021/01/27 01:42:22;;;;;;;19.13;15.47;;;;;;;3.10;73.80;101343.41;6118544;29;20232;-63
2021/01/27 01:45:44;;;;;;;18.93;14.70;;;;;;;3.18;74.00;101336.81;6103270;29;20554;-62
2021/01/27 01:49:09;;;;;;;21.63;15.23;;;;;;;3.05;74.22;101332.13;6116273;28;20318;-63
2021/01/27 01:52:29;;;;;;;15.93;12.97;;;;;;;3.18;74.10;101326.50;6115313;29;20327;-63
2021/01/27 01:55:54;;;;;;;21.47;15.37;;;;;;;3.33;73.47;101326.94;6113700;28;20319;-62
2021/01/27 01:59:15;;;;;;;18.13;15.43;;;;;;;3.35;73.06;101322.72;6125696;28;20315;-63
2021/01/27 02:02:37;;;;;;;16.57;14.80;;;;;;;3.48;72.79;101320.47;6116521;29;20243;-62
2021/01/27 02:05:59;;;;;;;16.50;14.40;;;;;;;3.12;73.57;101323.72;6117942;28;20275;-62
2021/01/27 02:09:20;;;;;;;15.70;14.10;;;;;;;3.05;74.69;101316.66;6124577;28;20322;-63
2021/01/27 02:13:08;;;;;;;21.37;15.83;;;;;;;3.06;74.68;101318.41;6120336;28;20231;-62
2021/01/27 02:16:38;;;;;;;19.50;15.53;;;;;;;3.21;74.62;101313.72;6120692;28;20230;-63
2021/01/27 02:20:33;;;;;;;19.60;15.47;;;;;;;3.08;74.11;101309.03;6111824;29;20240;-62
2021/01/27 02:24:50;;;;;;;20.97;15.13;;;;;;;3.36;73.88;101305.56;6109109;29;20235;-62
2021/01/27 02:28:20;;;;;;;19.77;16.73;;;;;;;2.92;75.03;101305.13;6125268;28;20309;-63
2021/01/27 02:31:43;;;;;;;17.47;14.90;;;;;;;3.19;73.80;101291.34;6118683;29;20609;-63
2021/01/27 02:35:11;;;;;;;16.53;14.93;;;;;;;3.23;73.48;101288.88;6121248;29;20240;-63
2021/01/27 02:38:35;;;;;;;20.07;17.33;;;;;;;3.26;73.22;101293.25;6111505;29;20310;-62
2021/01/27 02:42:03;;;;;;;25.77;16.53;;;;;;;3.33;73.45;101301.19;6119752;28;20235;-62
2021/01/27 02:45:30;;;;;;;20.40;17.03;;;;;;;3.27;73.56;101301.00;6121083;28;20549;-63
2021/01/27 02:48:57;;;;;;;19.23;16.73;;;;;;;3.20;73.36;101296.53;6122684;28;20227;-63
2021/01/27 02:52:23;;;;;;;21.67;17.67;;;;;;;3.22;73.05;101293.97;6123027;28;20239;-63
2021/01/27 02:55:50;;;;;;;21.87;17.20;;;;;;;3.12;73.48;101296.31;6124927;28;20546;-63
2021/01/27 02:59:18;;;;;;;22.93;16.53;;;;;;;3.10;73.79;101282.53;6123762;28;20228;-63
2021/01/27 03:02:44;;;;;;;24.23;18.17;;;;;;;3.14;73.86;101278.31;6108141;29;20240;-62
2021/01/27 03:06:10;;;;;;;18.57;16.10;;;;;;;2.85;75.09;101280.94;6120002;29;20239;-63
2021/01/27 03:09:47;;;;;;;20.73;15.37;;;;;;;3.14;73.63;101280.88;6118085;29;20474;-63
2021/01/27 03:13:08;;;;;;;18.83;16.13;;;;;;;3.07;73.62;101276.41;6118872;28;20248;-63
2021/01/27 03:16:34;;;;;;;20.80;17.63;;;;;;;3.44;73.03;101272.28;6119876;29;20236;-63
2021/01/27 03:20:00;;;;;;;17.73;15.93;;;;;;;3.41;71.62;101267.91;6122172;28;20707;-62
2021/01/27 03:23:26;;;;;;;20.17;17.97;;;;;;;2.99;73.19;101275.31;6115974;29;20228;-63
2021/01/27 03:26:58;;;;;;;19.67;17.57;;;;;;;2.91;74.10;101265.69;6118711;29;20235;-62
2021/01/27 03:30:19;;;;;;;19.13;17.13;;;;;;;2.95;74.10;101271.78;6118606;29;20240;-64
2021/01/27 03:33:46;;;;;;;20.80;18.70;;;;;;;3.05;73.41;101262.63;6120060;28;20628;-62
2021/01/27 03:37:12;;;;;;;24.43;19.30;;;;;;;2.91;73.65;101267.38;6103946;29;20236;-62
2021/01/27 03:40:34;;;;;;;25.67;20.90;;;;;;;2.99;72.98;101259.88;6106258;29;20235;-61
2021/01/27 03:44:02;;;;;;;22.23;18.57;;;;;;;3.28;72.23;101265.84;6121730;29;20344;-61
2021/01/27 03:47:31;;;;;;;21.83;19.63;;;;;;;3.35;71.78;101263.50;6119501;28;20230;-62
2021/01/27 03:50:55;;;;;;;38.10;21.03;;;;;;;3.48;71.75;101259.53;6120205;28;20255;-61
2021/01/27 03:54:19;;;;;;;25.47;21.63;;;;;;;3.23;72.33;101258.00;6130852;28;20232;-63
2021/01/27 03:57:45;;;;;;;24.13;20.23;;;;;;;3.88;70.44;101249.41;6114596;28;20267;-63
2021/01/27 04:01:08;;;;;;;48.87;40.57;;;;;;;3.52;70.58;101252.78;6124185;28;20618;-63
2021/01/27 04:04:29;;;;;;;37.63;33.57;;;;;;;3.59;70.47;101251.22;6125962;28;20231;-62
2021/01/27 04:07:50;;;;;;;24.83;22.13;;;;;;;3.72;69.48;101249.03;6104918;28;20274;-64
2021/01/27 04:11:11;;;;;;;28.60;25.50;;;;;;;3.62;70.94;101241.88;6116305;29;20236;-63
2021/01/27 04:14:31;;;;;;;25.00;22.50;;;;;;;3.35;70.95;101242.91;6123688;28;20517;-62
2021/01/27 04:17:53;;;;;;;26.53;22.60;;;;;;;3.33;71.66;101241.09;6123311;28;20490;-62
2021/01/27 04:21:13;;;;;;;24.33;21.77;;;;;;;3.48;70.25;101236.34;6127152;28;20815;-63
2021/01/27 04:24:34;;;;;;;36.23;26.60;;;;;;;3.49;71.10;101232.97;6133671;28;20235;-62
2021/01/27 04:27:54;;;;;;;26.53;22.27;;;;;;;3.32;71.53;101226.50;6135264;28;20251;-63
2021/01/27 04:31:15;;;;;;;25.57;21.17;;;;;;;3.72;70.30;101233.56;6122558;28;20220;-63
2021/01/27 04:34:36;;;;;;;24.83;22.23;;;;;;;3.54;71.29;101233.06;6128223;28;20326;-63
2021/01/27 04:37:58;;;;;;;24.73;22.13;;;;;;;3.71;70.00;101224.09;6121017;29;20525;-62
2021/01/27 04:41:18;;;;;;;25.97;23.23;;;;;;;3.58;70.50;101219.44;6124685;28;20239;-62
2021/01/27 04:44:39;;;;;;;26.10;23.37;;;;;;;3.41;71.65;101219.00;6114568;28;20228;-62
2021/01/27 04:48:08;;;;;;;28.90;25.50;;;;;;;3.72;70.14;101214.63;6117964;29;20322;-62
2021/01/27 04:51:37;;;;;;;27.43;23.90;;;;;;;3.65;70.72;101205.91;6124738;29;20239;-63
2021/01/27 04:55:17;;;;;;;29.30;26.17;;;;;;;3.50;71.90;101201.22;6115342;29;20231;-63
2021/01/27 04:58:46;;;;;;;29.90;25.93;;;;;;;3.28;72.85;101204.94;6115785;28;20240;-62
2021/01/27 05:02:23;;;;;;;35.90;28.73;;;;;;;3.12;73.24;101197.63;6121269;29;20224;-63
2021/01/27 05:05:49;;;;;;;40.00;29.90;;;;;;;3.09;73.69;101197.56;6119895;29;20274;-63
2021/01/27 05:09:14;;;;;;;35.50;30.67;;;;;;;2.90;74.22;101203.88;6119162;29;20224;-63
2021/01/27 05:12:40;;;;;;;39.13;30.00;;;;;;;2.65;76.12;101199.72;6101687;29;20267;-62
2021/01/27 05:16:04;;;;;;;44.47;32.87;;;;;;;3.04;74.41;101186.25;6120383;28;20638;-62
2021/01/27 05:19:24;;;;;;;41.00;31.23;;;;;;;3.17;74.40;101184.88;6125755;28;20235;-62
2021/01/27 05:22:45;;;;;;;44.17;32.00;;;;;;;2.88;74.95;101197.81;6105696;29;20236;-62
2021/01/27 05:26:11;;;;;;;39.03;31.03;;;;;;;2.92;75.22;101182.50;6119230;29;20232;-62
2021/01/27 05:29:37;;;;;;;39.27;31.93;;;;;;;2.87;75.05;101180.63;6123709;29;20236;-63
2021/01/27 05:32:58;;;;;;;38.57;33.60;;;;;;;2.98;74.49;101184.38;6121410;29;20235;-62
2021/01/27 05:36:21;;;;;;;40.83;32.73;;;;;;;3.01;74.87;101181.91;6119021;29;20224;-62
2021/01/27 05:39:42;;;;;;;38.40;32.13;;;;;;;2.91;75.87;101182.47;6119613;28;20257;-64
2021/01/27 05:43:14;;;;;;;42.97;35.80;;;;;;;2.92;75.28;101177.34;6120675;29;20733;-61
2021/01/27 05:46:37;;;;;;;45.90;34.30;;;;;;;2.94;74.92;101173.13;6110691;29;20231;-61
2021/01/27 05:49:57;;;;;;;39.83;33.33;;;;;;;3.05;74.04;101180.28;6112992;28;20236;-62
2021/01/27 05:53:21;;;;;;;40.10;34.53;;;;;;;3.04;75.07;101171.66;6123570;28;20271;-63
2021/01/27 05:56:42;;;;;;;37.53;31.90;;;;;;;3.21;73.65;101171.28;6121866;28;20223;-61
2021/01/27 06:00:22;;;;;;;47.20;34.20;;;;;;;2.96;74.33;101166.31;6106666;29;20335;-62
2021/01/27 06:04:02;;;;;;;39.97;33.20;;;;;;;3.18;73.86;101166.91;6130545;28;20231;-62
2021/01/27 06:07:25;;;;;;;35.90;31.27;;;;;;;3.22;73.30;101168.75;6120673;28;20599;-63
2021/01/27 06:10:46;;;;;;;38.33;32.50;;;;;;;3.15;73.60;101165.13;6132858;28;20232;-62
2021/01/27 06:14:09;;;;;;;40.57;32.03;;;;;;;3.08;74.02;101162.34;6111173;28;20235;-64
2021/01/27 06:17:41;;;;;;;39.20;31.93;;;;;;;2.98;74.23;101155.22;6114565;28;20239;-62
2021/01/27 06:21:32;;;;;;;35.47;31.53;;;;;;;3.16;73.13;101145.41;6118027;29;20232;-63
2021/01/27 06:25:07;;;;;;;39.17;30.57;;;;;;;3.24;73.12;101141.34;6135066;28;20511;-62
2021/01/27 06:28:46;;;;;;;37.13;31.10;;;;;;;2.85;73.93;101147.16;6121129;29;20227;-63
2021/01/27 06:32:24;;;;;;;40.43;32.63;;;;;;;3.18;73.22;101153.16;6117126;29;20231;-63
2021/01/27 06:35:57;;;;;;;36.23;32.20;;;;;;;3.14;72.34;101147.94;6111518;28;20227;-62
2021/01/27 06:39:39;;;;;;;39.13;29.90;;;;;;;3.09;72.10;101146.09;6117189;29;20231;-61
2021/01/27 06:43:26;;;;;;;42.03;33.50;;;;;;;3.20;72.02;101144.66;6107753;29;20243;-62
2021/01/27 06:47:13;;;;;;;35.63;29.27;;;;;;;3.02;72.67;101149.31;6114551;28;20239;-63
2021/01/27 06:50:54;;;;;;;35.83;31.77;;;;;;;2.71;73.48;101151.91;6110159;29;20232;-63
2021/01/27 06:54:29;;;;;;;39.33;31.10;;;;;;;3.06;71.93;101136.56;6120938;29;20227;-62
2021/01/27 06:58:07;;;;;;;34.03;30.37;;;;;;;3.06;72.00;101136.56;6117500;28;20240;-62
2021/01/27 07:01:48;;;;;;;33.77;28.10;;;;;;;3.06;72.01;101141.69;6118398;29;20322;-62
2021/01/27 07:05:49;;;;;;;36.30;29.57;;;;;;;2.86;71.96;101138.59;6119318;28;20232;-63
2021/01/27 07:09:56;;;;;;;34.67;29.43;;;;;;;3.22;71.14;101148.16;6125704;28;20307;-63
2021/01/27 07:13:36;;;;;;;33.23;27.07;;;;;;;2.98;70.91;101139.78;6122346;28;20236;-62
2021/01/27 07:17:19;;;;;;;33.90;27.67;;;;;;;3.11;70.51;101137.56;6111443;28;20555;-62
2021/01/27 07:20:46;;;;;;;34.97;29.40;;;;;;;3.13;70.33;101142.75;6114730;29;20224;-63
2021/01/27 07:24:17;;;;;;;32.37;28.70;;;;;;;3.39;69.41;101139.97;6107035;29;20307;-62
2021/01/27 07:27:45;;;;;;;34.73;27.90;;;;;;;3.41;70.37;101138.31;6117773;29;20537;-62
2021/01/27 07:31:12;;;;;;;32.00;28.60;;;;;;;2.99;70.90;101128.66;6104561;29;20873;-63
2021/01/27 07:34:37;;;;;;;30.40;26.03;;;;;;;2.98;70.27;101134.63;6110476;28;20594;-62
2021/01/27 07:38:01;;;;;;;33.77;28.10;;;;;;;2.85;71.36;101135.97;6124189;28;20236;-63
2021/01/27 07:41:28;;;;;;;36.30;27.60;;;;;;;3.34;69.63;101130.44;6129795;28;20235;-63
2021/01/27 07:44:56;;;;;;;32.27;26.37;;;;;;;3.03;70.27;101133.06;6126871;28;20251;-63
2021/01/27 07:48:22;;;;;;;33.60;29.67;;;;;;;3.51;69.14;101122.28;6113029;29;20232;-62
2021/01/27 07:51:51;;;;;;;38.00;29.60;;;;;;;3.47;69.16;101117.84;6124898;28;20612;-61
2021/01/27 07:55:19;;;;;;;38.77;29.37;;;;;;;3.61;68.98;101115.66;6122947;29;20232;-63
2021/01/27 07:58:45;;;;;;;33.10;29.50;;;;;;;3.35;70.34;101116.75;6120359;28;20235;-63
2021/01/27 08:02:09;;;;;;;32.20;27.53;;;;;;;3.14;70.64;101111.03;6113475;29;20232;-62
2021/01/27 08:05:37;;;;;;;31.83;28.47;;;;;;;3.22;70.51;101099.25;6129272;28;20238;-63
2021/01/27 08:09:00;;;;;;;39.03;29.40;;;;;;;3.73;69.10;101101.34;6111176;28;20239;-62
2021/01/27 08:12:30;;;;;;;36.20;29.33;;;;;;;3.62;68.30;101096.78;6111654;29;20617;-62
2021/01/27 08:16:02;;;;;;;37.20;30.43;;;;;;;3.74;68.24;101092.78;6126394;28;20235;-62
2021/01/27 08:19:25;;;;;;;33.80;30.17;;;;;;;3.84;67.17;101088.72;6120739;28;20227;-62
2021/01/27 08:22:51;;;;;;;35.27;28.40;;;;;;;3.90;67.88;101088.00;6112362;28;20710;-63
2021/01/27 08:26:12;;;;;;;33.57;28.93;;;;;;;4.12;66.27;101081.59;6120389;28;20239;-63
2021/01/27 08:29:33;;;;;;;33.23;27.17;;;;;;;3.66;66.94;101081.41;6117102;29;20268;-63
2021/01/27 08:33:29;;;;;;;31.07;27.67;;;;;;;5.85;61.12;101067.47;6113942;28;20235;-62
2021/01/27 08:37:03;;;;;;;30.17;26.93;;;;;;;7.39;55.88;101058.88;6110540;29;22054;-63
2021/01/27 08:40:32;;;;;;;29.50;25.57;;;;;;;8.81;51.24;101056.13;6119558;28;20615;-63
2021/01/27 08:43:56;;;;;;;28.27;23.37;;;;;;;6.73;55.75;101071.16;6127827;28;20244;-63
2021/01/27 08:47:24;;;;;;;29.57;25.10;;;;;;;9.19;49.17;101065.72;6119096;28;20256;-62
2021/01/27 08:50:47;;;;;;;26.13;23.40;;;;;;;10.20;47.63;101069.03;6122000;29;20246;-62
2021/01/27 08:54:37;;;;;;;27.90;24.97;;;;;;;8.99;48.07;101059.63;6115517;29;20511;-63
2021/01/27 08:58:35;;;;;;;28.30;25.33;;;;;;;6.33;56.80;101066.41;6117451;29;20224;-63
2021/01/27 09:01:55;;;;;;;28.67;25.67;;;;;;;6.61;56.70;101066.72;6051399;29;20555;-62
2021/01/27 09:05:37;;;;;;;27.23;24.43;;;;;;;7.77;52.77;101061.69;6118866;28;20228;-63
2021/01/27 09:09:12;;;;;;;27.57;24.63;;;;;;;8.39;50.48;101057.69;6120921;28;20236;-63
2021/01/27 09:12:33;;;;;;;26.97;24.27;;;;;;;9.85;46.69;101054.41;6099051;29;20255;-63
2021/01/27 09:15:57;;;;;;;25.33;22.73;;;;;;;11.30;42.97;101059.75;6117091;28;20534;-62
2021/01/27 09:19:19;;;;;;;23.03;20.73;;;;;;;10.78;43.24;101058.38;6121531;29;20224;-63
2021/01/27 09:22:40;;;;;;;25.10;22.60;;;;;;;12.91;40.67;101045.72;6115934;29;20235;-62
2021/01/27 09:26:03;;;;;;;22.40;20.30;;;;;;;12.67;38.51;101039.97;6117706;29;20247;-63
2021/01/27 09:29:26;;;;;;;20.40;17.73;;;;;;;11.26;42.10;101046.72;6119286;29;20509;-64
2021/01/27 09:32:47;;;;;;;20.13;18.23;;;;;;;15.14;35.99;101042.28;6115401;29;20228;-63
2021/01/27 09:36:12;;;;;;;23.13;18.77;;;;;;;16.40;32.43;101058.19;6114607;29;20236;-63
2021/01/27 09:39:35;;;;;;;18.48;16.65;;;;;;;14.49;34.85;101057.72;6112385;29;20227;-63
2021/01/27 09:42:58;;;;;;;18.80;17.20;;;;;;;15.16;33.75;101065.88;6120183;28;20235;-62
2021/01/27 09:46:26;;;;;;;17.05;15.30;;;;;;;15.84;31.59;101075.53;6110213;28;20232;-63
2021/01/27 09:49:50;;;;;;;18.05;16.13;;;;;;;16.29;31.52;101067.28;6115184;28;20337;-62
2021/01/27 09:53:23;;;;;;;18.02;16.23;;;;;;;16.33;31.76;101074.16;6111632;28;20594;-62
2021/01/27 09:56:44;;;;;;;16.70;15.07;;;;;;;14.31;34.37;101070.31;6113532;29;20228;-63
2021/01/27 10:00:09;;;;;;;16.38;14.88;;;;;;;16.36;30.59;101072.34;6113384;28;20228;-62
2021/01/27 10:03:32;;;;;;;14.60;13.23;;;;;;;14.21;33.63;101084.50;6113470;29;20231;-63
2021/01/27 10:06:56;;;;;;;12.60;11.52;;;;;;;14.52;33.13;101081.22;6102193;29;20508;-64
2021/01/27 10:10:18;;;;;;;13.38;12.00;;;;;;;11.81;37.25;101098.41;6108614;29;20279;-63
2021/01/27 10:13:42;;;;;;;11.90;10.82;;;;;;;10.94;39.57;101077.38;6108036;29;20324;-62
2021/01/27 10:17:04;;;;;;;10.23;9.37;;;;;;;8.28;45.56;101091.41;6117188;29;20263;-62
2021/01/27 10:20:29;;;;;;;11.47;10.37;;;;;;;7.70;47.60;101091.06;6114010;29;20239;-63
2021/01/27 10:23:50;;;;;;;9.07;8.23;;;;;;;8.24;46.21;101079.28;6113819;29;20232;-62
2021/01/27 10:27:17;;;;;;;19.03;10.30;;;;;;;8.52;45.83;101070.75;6110530;29;20618;-63
2021/01/27 10:30:47;;;;;;;10.50;9.43;;;;;;;8.89;44.97;101057.88;6110302;28;20534;-62
2021/01/27 10:34:07;;;;;;;13.33;10.40;;;;;;;9.32;43.82;101048.38;6115335;29;20228;-63
2021/01/27 10:37:31;;;;;;;11.00;9.83;;;;;;;9.32;43.75;101042.31;6110367;28;20499;-64
2021/01/27 10:41:09;;;;;;;11.00;9.00;;;;;;;10.03;42.16;101041.31;6121959;29;20235;-63
2021/01/27 10:44:32;;;;;;;12.97;10.47;;;;;;;9.17;44.46;101046.66;6119769;28;20240;-64
2021/01/27 10:48:06;;;;;;;13.90;9.67;;;;;;;7.56;48.59;101046.00;6109914;29;20235;-63
2021/01/27 10:51:26;;;;;;;11.37;9.43;;;;;;;7.79;48.35;101052.22;6102397;28;20251;-63
2021/01/27 10:54:48;;;;;;;11.37;10.03;;;;;;;6.90;50.18;101047.22;6119889;28;20669;-63
2021/01/27 10:58:11;;;;;;;10.93;9.80;;;;;;;6.24;52.47;101058.53;6096432;28;20323;-64
2021/01/27 11:01:32;;;;;;;11.30;9.40;;;;;;;6.29;52.80;101049.97;6116816;29;20235;-61
2021/01/27 11:04:52;;;;;;;10.70;9.60;;;;;;;6.78;51.63;101041.91;6126329;28;20371;-62
2021/01/27 11:08:14;;;;;;;10.53;9.30;;;;;;;6.73;51.77;101046.19;6118972;29;20239;-63
2021/01/27 11:11:36;;;;;;;11.63;10.13;;;;;;;5.99;53.64;101058.22;6100171;28;20236;-62
2021/01/27 11:14:57;;;;;;;11.50;10.30;;;;;;;6.20;53.52;101044.69;6113236;28;20941;-62
2021/01/27 11:18:19;;;;;;;10.53;9.13;;;;;;;6.07;53.45;101038.50;6116432;29;20602;-63
2021/01/27 11:21:39;;;;;;;11.97;9.80;;;;;;;5.67;54.73;101032.75;6118592;28;20231;-63
2021/01/27 11:25:00;;;;;;;9.80;8.80;;;;;;;5.42;55.12;101022.91;6122806;28;20235;-62
2021/01/27 11:28:21;;;;;;;11.13;9.37;;;;;;;5.41;55.22;101013.41;6121352;28;20228;-63
2021/01/27 11:31:42;;;;;;;13.40;9.20;;;;;;;5.46;55.06;101027.28;6124779;29;20243;-63
2021/01/27 11:35:03;;;;;;;12.10;9.27;;;;;;;5.60;55.43;101006.81;6123812;28;20235;-63
2021/01/27 11:38:24;;;;;;;8.60;7.60;;;;;;;5.47;55.10;101000.59;6121582;29;20618;-63
2021/01/27 11:41:44;;;;;;;10.67;8.73;;;;;;;4.94;56.33;101001.47;6117116;28;20228;-62
2021/01/27 11:45:07;;;;;;;9.90;7.83;;;;;;;5.36;55.53;100999.56;6119915;28;20315;-62
2021/01/27 11:48:28;;;;;;;9.03;7.87;;;;;;;4.96;57.13;100983.44;6111910;29;20601;-62
2021/01/27 11:51:49;;;;;;;10.27;8.40;;;;;;;4.93;57.24;100994.59;6125408;29;20661;-63
2021/01/27 11:55:10;;;;;;;9.57;8.27;;;;;;;4.61;58.29;100976.81;6124986;28;20239;-62
2021/01/27 11:58:30;;;;;;;9.20;8.00;;;;;;;5.39;55.88;100963.44;6121002;28;20235;-63
2021/01/27 12:01:51;;;;;;;10.80;7.27;;;;;;;4.98;57.22;100968.84;6123554;29;20232;-63
2021/01/27 12:05:13;;;;;;;10.70;7.47;;;;;;;4.85;56.95;100965.22;6112970;28;20244;-62
2021/01/27 12:08:34;;;;;;;20.50;9.43;;;;;;;4.68;58.15;100952.00;6109832;29;20232;-63
2021/01/27 12:11:55;;;;;;;8.43;7.30;;;;;;;5.25;56.86;100948.63;6123352;29;20601;-64
2021/01/27 12:15:16;;;;;;;12.83;7.33;;;;;;;5.29;56.13;100940.09;6118122;28;20275;-63
2021/01/27 12:18:36;;;;;;;8.00;6.63;;;;;;;4.84;57.93;100933.34;6123386;29;20331;-62
2021/01/27 12:21:58;;;;;;;13.30;6.77;;;;;;;4.80;57.86;100929.00;6118280;29;20236;-63
2021/01/27 12:25:18;;;;;;;8.07;5.90;;;;;;;4.67;57.42;100915.03;6112437;29;20503;-63
2021/01/27 12:28:38;;;;;;;7.37;6.67;;;;;;;4.88;57.57;100917.06;6113794;29;20239;-63
2021/01/27 12:31:59;;;;;;;9.10;6.57;;;;;;;5.07;57.46;100919.94;6117736;28;20489;-64
2021/01/27 12:35:20;;;;;;;6.43;5.93;;;;;;;4.57;57.52;100915.69;6119923;28;20232;-63
2021/01/27 12:38:42;;;;;;;8.37;7.27;;;;;;;5.02;57.38;100917.31;6116982;28;20255;-63
2021/01/27 12:42:03;;;;;;;7.70;6.00;;;;;;;5.09;56.82;100913.09;6124681;28;20228;-64
2021/01/27 12:45:27;;;;;;;8.20;5.43;;;;;;;4.09;58.94;100938.06;6120010;29;20611;-64
2021/01/27 12:48:47;;;;;;;6.93;5.27;;;;;;;4.36;58.78;100912.75;6119161;28;20232;-63
2021/01/27 12:52:07;;;;;;;7.27;6.57;;;;;;;4.72;57.33;100897.03;6108457;29;20251;-63
2021/01/27 12:55:29;;;;;;;6.70;4.90;;;;;;;4.52;58.14;100895.00;6108173;28;20795;-63
2021/01/27 12:58:49;;;;;;;7.40;6.60;;;;;;;4.61;58.50;100888.25;6114025;28;20325;-62
2021/01/27 13:02:09;;;;;;;9.97;7.37;;;;;;;4.45;59.09;100892.28;6118500;28;20714;-64
2021/01/27 13:05:30;;;;;;;7.73;6.23;;;;;;;4.35;58.91;100899.00;6117748;28;20236;-63
2021/01/27 13:08:51;;;;;;;7.50;6.50;;;;;;;4.42;58.98;100895.69;6114700;28;20240;-63
2021/01/27 13:12:12;;;;;;;9.23;6.13;;;;;;;4.89;57.76;100887.84;6119642;29;20235;-62
2021/01/27 13:15:33;;;;;;;9.20;6.30;;;;;;;4.30;59.16;100900.63;6119198;29;20633;-62
2021/01/27 13:18:54;;;;;;;9.03;5.77;;;;;;;4.29;59.62;100881.72;6118614;29;20247;-62
2021/01/27 13:22:16;;;;;;;7.10;6.40;;;;;;;4.98;57.83;100879.38;6120693;28;20232;-63
2021/01/27 13:25:36;;;;;;;8.83;6.43;;;;;;;5.06;57.66;100875.22;6116640;29;20239;-62
2021/01/27 13:28:58;;;;;;;9.40;6.90;;;;;;;5.08;56.97;100875.22;6112845;29;20235;-63
2021/01/27 13:32:18;;;;;;;6.07;5.30;;;;;;;4.38;59.53;100868.13;6116958;28;20235;-63
2021/01/27 13:35:40;;;;;;;6.40;5.80;;;;;;;4.83;58.59;100867.13;6125730;28;20255;-62
2021/01/27 13:39:00;;;;;;;5.80;5.30;;;;;;;4.70;58.60;100871.22;6121500;28;20228;-63
2021/01/27 13:42:21;;;;;;;6.97;6.23;;;;;;;4.40;59.75;100863.88;6118268;28;20224;-62
2021/01/27 13:45:42;;;;;;;9.37;6.37;;;;;;;4.11;60.17;100847.84;6118181;29;20232;-63
2021/01/27 13:49:03;;;;;;;7.70;6.13;;;;;;;4.81;58.93;100843.00;6117074;28;20236;-63
2021/01/27 13:52:23;;;;;;;7.00;5.63;;;;;;;4.43;59.47;100857.88;6122132;28;20235;-62
2021/01/27 13:55:44;;;;;;;6.97;6.30;;;;;;;4.58;59.02;100841.78;6120227;29;20239;-63
2021/01/27 13:59:04;;;;;;;7.13;6.20;;;;;;;4.72;57.93;100853.19;6130905;28;20621;-63
2021/01/27 14:02:26;;;;;;;8.40;6.00;;;;;;;4.80;58.55;100850.72;6119044;29;20235;-63
2021/01/27 14:05:46;;;;;;;7.13;5.90;;;;;;;4.40;60.02;100850.06;6120939;28;20243;-63
2021/01/27 14:09:07;;;;;;;7.00;5.90;;;;;;;4.39;59.36;100854.38;6116466;29;20232;-62
2021/01/27 14:12:27;;;;;;;7.13;5.77;;;;;;;4.49;59.71;100843.34;6121144;28;20314;-64
2021/01/27 14:15:48;;;;;;;7.73;6.27;;;;;;;4.28;60.63;100838.72;6120690;28;20236;-63
2021/01/27 14:19:09;;;;;;;6.30;5.70;;;;;;;4.42;59.85;100833.81;6121431;28;20613;-63
2021/01/27 14:22:30;;;;;;;6.43;5.87;;;;;;;4.83;59.15;100820.66;6122507;28;20227;-65
2021/01/27 14:25:50;;;;;;;7.43;6.07;;;;;;;4.60;59.36;100819.47;6110948;28;20239;-64
2021/01/27 14:29:11;;;;;;;7.80;5.37;;;;;;;4.29;60.06;100819.84;6119873;29;20233;-66
2021/01/27 14:32:31;;;;;;;6.00;5.00;;;;;;;4.02;61.14;100822.81;6089836;28;20621;-63
2021/01/27 14:35:52;;;;;;;6.80;6.10;;;;;;;4.19;61.04;100823.09;6115342;29;20228;-65
2021/01/27 14:39:13;;;;;;;6.97;6.00;;;;;;;4.30;60.62;100818.13;6108367;28;20261;-63
2021/01/27 14:42:33;;;;;;;6.73;5.97;;;;;;;4.65;59.87;100818.69;6112411;29;20244;-63
2021/01/27 14:45:54;;;;;;;7.20;6.50;;;;;;;4.48;60.13;100821.00;6114216;29;20231;-63
2021/01/27 14:49:14;;;;;;;7.30;6.60;;;;;;;4.23;61.75;100806.84;6113230;29;20518;-64
2021/01/27 14:52:35;;;;;;;7.83;7.20;;;;;;;3.88;63.26;100816.53;6113283;29;20235;-67
2021/01/27 14:55:55;;;;;;;5.77;5.27;;;;;;;4.18;62.43;100808.47;6098707;28;20697;-65
2021/01/27 14:59:16;;;;;;;6.37;5.40;;;;;;;4.43;61.91;100802.00;6121209;28;20378;-65
2021/01/27 15:02:36;;;;;;;6.63;5.53;;;;;;;4.40;61.55;100803.66;6111609;29;20633;-64
2021/01/27 15:05:57;;;;;;;6.13;5.53;;;;;;;4.10;62.64;100803.19;6117444;29;20236;-62
2021/01/27 15:09:18;;;;;;;6.80;6.13;;;;;;;4.34;62.03;100805.31;6115379;29;20483;-61
2021/01/27 15:12:39;;;;;;;7.47;6.87;;;;;;;4.23;62.19;100803.41;6111916;29;20595;-61
2021/01/27 15:16:00;;;;;;;7.17;5.80;;;;;;;4.10;63.11;100807.47;6113060;29;20396;-62
2021/01/27 15:19:20;;;;;;;6.90;6.30;;;;;;;4.66;62.04;100809.25;6125821;28;20625;-62
2021/01/27 15:22:40;;;;;;;9.10;7.37;;;;;;;4.64;61.62;100808.34;6105244;29;20240;-63
2021/01/27 15:26:01;;;;;;;6.43;5.90;;;;;;;3.86;64.78;100807.94;6118520;28;20559;-64
2021/01/27 15:29:22;;;;;;;7.03;6.43;;;;;;;3.82;65.00;100822.44;6120290;28;20315;-64
2021/01/27 15:32:42;;;;;;;6.90;6.30;;;;;;;3.92;64.93;100826.06;6112333;29;20224;-62
2021/01/27 15:36:03;;;;;;;8.27;7.40;;;;;;;3.93;64.81;100831.22;6116557;29;20262;-64
2021/01/27 15:39:24;;;;;;;8.03;7.20;;;;;;;4.07;64.22;100823.75;6104938;29;20236;-61
2021/01/27 15:42:45;;;;;;;6.83;6.27;;;;;;;3.98;64.61;100820.16;6117635;29;20235;-62
2021/01/27 15:46:05;;;;;;;9.53;7.57;;;;;;;4.07;64.61;100828.03;6115686;29;20610;-62
2021/01/27 15:49:26;;;;;;;8.50;7.70;;;;;;;3.79;65.96;100836.97;6114010;28;20274;-60